M/V Gs980 — WTK9405 — position and weather

sailwx.info

Track history (hours):
 
Tides and Currents Weather Stations Pressure Air Temp Water Temp Dewpoint Dewpoint Depression Visibility Wind Speed Wind Dir Waves Ship Positions

M/V Gs980

Owner: ERGON MARINE AND INDUSTRIAL SUPPLY, VICKSBURG, MS. More information available from US FCC via Universal Licensing System and Coast Guard Vessel Documentation Center.

Last reported at 2016-Jun-29 01:33 UTC. Time now 2016-Jun-29 02:08 UTC.
Position N 32°22' W 090°53'.

Length 16 m.

Type: Towing. MMSI: 367099640.

Date/timePositionNaut miles runAvg speedWind from/ knotsBaromVisibWave heightAir tempDewpointWater temp
2016-Jun-29 01:33N 32°22' W 090°53'2 2.0
2016-Jun-29 00:33N 32°20' W 090°54'0 0.0
2016-Jun-28 23:34N 32°20' W 090°54'0 0.1
2016-Jun-28 22:33N 32°20' W 090°54'0 0.0
2016-Jun-28 21:33N 32°20' W 090°54'3 0.3
2016-Jun-28 12:34N 32°23' W 090°53'4 1.8
2016-Jun-28 10:29N 32°20' W 090°54'4 3.9
2016-Jun-28 09:34N 32°23' W 090°53'0 0.0
2016-Jun-28 08:33N 32°23' W 090°53'0 0.0
2016-Jun-28 07:33N 32°23' W 090°53'0 0.0
2016-Jun-28 06:34N 32°23' W 090°53'0 0.0
2016-Jun-28 04:33N 32°23' W 090°53'0 0.0
2016-Jun-28 03:34N 32°23' W 090°53'0 0.0
2016-Jun-28 02:33N 32°23' W 090°53'1 0.5
2016-Jun-28 01:34N 32°23' W 090°54'1 0.7
2016-Jun-28 00:34N 32°23' W 090°53'2 2.1
2016-Jun-27 23:34N 32°21' W 090°53'2 1.8
2016-Jun-27 22:33N 32°19' W 090°54'2 1.7
2016-Jun-27 21:33N 32°18' W 090°55'3 3.1
2016-Jun-27 20:33N 32°21' W 090°53'1 0.9
2016-Jun-27 19:33N 32°22' W 090°53'0 0.1
2016-Jun-27 18:33N 32°22' W 090°53'1 1.2
2016-Jun-27 17:33N 32°23' W 090°53'0 0.0
2016-Jun-27 16:33N 32°23' W 090°53'3 3.4
2016-Jun-27 15:33N 32°20' W 090°54'2 2.3
2016-Jun-27 14:33N 32°18' W 090°56'0 0.0
2016-Jun-27 13:33N 32°18' W 090°56'3 3.1
2016-Jun-27 12:33N 32°20' W 090°54'0 0.2
2016-Jun-27 11:33N 32°20' W 090°54'0 0.0
2016-Jun-27 10:34N 32°20' W 090°54'0 0.3
2016-Jun-27 09:33N 32°20' W 090°54'0 0.0
2016-Jun-27 08:34N 32°20' W 090°54'0 0.0
2016-Jun-27 07:33N 32°20' W 090°54'1 0.9
2016-Jun-27 06:33N 32°21' W 090°53'1 1.1
2016-Jun-27 05:33N 32°20' W 090°54'0 0.2
2016-Jun-27 04:34N 32°21' W 090°54'3 2.7
2016-Jun-27 03:33N 32°23' W 090°53'0 0.0
2016-Jun-27 02:33N 32°23' W 090°53'0 0.0
2016-Jun-27 01:33N 32°23' W 090°53'0 0.0
2016-Jun-27 00:33N 32°23' W 090°53'3 3.1
2016-Jun-26 23:34N 32°20' W 090°54'0 0.2
2016-Jun-26 22:33N 32°20' W 090°54'2 2.5
2016-Jun-26 21:33N 32°22' W 090°53'1 1.0
2016-Jun-26 20:33N 32°23' W 090°53'0 0.0
2016-Jun-26 19:33N 32°23' W 090°53'0 0.0
2016-Jun-26 18:33N 32°23' W 090°53'0 0.0
2016-Jun-26 17:33N 32°23' W 090°53'0 0.0
2016-Jun-26 16:33N 32°23' W 090°53'0 0.0
2016-Jun-26 15:33N 32°23' W 090°53'3 3.2
2016-Jun-26 14:33N 32°20' W 090°54'2 2.3
2016-Jun-26 13:33N 32°18' W 090°55'0 0.0
2016-Jun-26 12:33N 32°18' W 090°55'2 1.0
2016-Jun-26 10:34N 32°20' W 090°54'0 0.0
2016-Jun-26 09:34N 32°20' W 090°54'0 0.0
2016-Jun-26 08:34N 32°20' W 090°54'0 0.0
2016-Jun-26 07:34N 32°20' W 090°54'0 0.0
2016-Jun-26 06:34N 32°20' W 090°54'2 1.7
2016-Jun-26 05:34N 32°18' W 090°55'0 0.3
2016-Jun-26 04:34N 32°18' W 090°55'1 0.6
2016-Jun-26 03:34N 32°18' W 090°55'3 2.6
2016-Jun-26 02:34N 32°21' W 090°53'2 2.5
2016-Jun-26 01:34N 32°23' W 090°53'1 0.8
2016-Jun-26 00:34N 32°22' W 090°53'2 1.9
2016-Jun-25 23:34N 32°21' W 090°54'0 0.2
2016-Jun-25 21:33N 32°21' W 090°53'1 0.6
2016-Jun-25 20:33N 32°20' W 090°54'0 0.0
2016-Jun-25 19:33N 32°20' W 090°54'0 0.0
2016-Jun-25 18:33N 32°20' W 090°54'3 2.9
2016-Jun-25 17:33N 32°23' W 090°53'0 0.0
2016-Jun-25 16:33N 32°23' W 090°53'0 0.0
2016-Jun-25 15:33N 32°23' W 090°53'0 0.0
2016-Jun-25 14:33N 32°23' W 090°53'0 0.0
2016-Jun-25 13:33N 32°23' W 090°53'2 1.8
2016-Jun-25 12:33N 32°21' W 090°53'2 0.6
2016-Jun-25 09:10N 32°20' W 090°54'4 5.9
2016-Jun-25 08:33N 32°23' W 090°53'0 0.3
2016-Jun-25 07:33N 32°23' W 090°53'0 0.0
2016-Jun-25 06:33N 32°23' W 090°53'0 0.0
2016-Jun-25 05:33N 32°23' W 090°53'0 0.0
2016-Jun-25 04:33N 32°23' W 090°53'0 0.0
2016-Jun-25 03:33N 32°23' W 090°53'0 0.0
2016-Jun-25 02:33N 32°23' W 090°53'0 0.0
2016-Jun-25 01:33N 32°23' W 090°53'0 0.0
2016-Jun-25 00:33N 32°23' W 090°53'2 2.4
2016-Jun-24 23:33N 32°21' W 090°53'1 1.3
2016-Jun-24 22:33N 32°22' W 090°53'1 0.7
2016-Jun-24 21:33N 32°23' W 090°52'2 2.3
2016-Jun-24 20:33N 32°20' W 090°54'3 2.7
2016-Jun-24 19:33N 32°23' W 090°53'0 0.0
2016-Jun-24 18:33N 32°23' W 090°53'0 0.0
2016-Jun-24 17:33N 32°23' W 090°53'0 0.0
2016-Jun-24 16:33N 32°23' W 090°53'0 0.0
2016-Jun-24 15:33N 32°23' W 090°53'0 0.0
2016-Jun-24 14:33N 32°23' W 090°53'0 0.0
2016-Jun-24 13:33N 32°23' W 090°53'0 0.0
2016-Jun-24 12:33N 32°23' W 090°53'3 2.6
2016-Jun-24 11:33N 32°21' W 090°54'1 0.6
2016-Jun-24 10:18N 32°20' W 090°54'3 4.6
2016-Jun-24 09:33N 32°23' W 090°53'0 0.0
2016-Jun-24 08:33N 32°23' W 090°53'0 0.0
2016-Jun-24 07:33N 32°23' W 090°53'0 0.0
2016-Jun-24 04:33N 32°23' W 090°53'0 0.0
2016-Jun-24 03:33N 32°23' W 090°53'0 0.3
2016-Jun-24 02:33N 32°23' W 090°53'0 0.2
2016-Jun-24 01:33N 32°23' W 090°53'1 0.7
2016-Jun-24 00:33N 32°22' W 090°53'2 2.2
2016-Jun-23 23:33N 32°20' W 090°54'3 2.9
2016-Jun-23 22:33N 32°23' W 090°53'0 0.2
2016-Jun-23 21:34N 32°23' W 090°53'0 0.0
2016-Jun-23 20:33N 32°23' W 090°53'0 0.0
2016-Jun-23 19:33N 32°23' W 090°53'0 0.0
2016-Jun-23 18:34N 32°23' W 090°53'0 0.0
2016-Jun-23 17:33N 32°23' W 090°53'0 0.0
2016-Jun-23 16:34N 32°23' W 090°53'0 0.0
2016-Jun-23 15:33N 32°23' W 090°53'0 0.0
2016-Jun-23 14:33N 32°23' W 090°53'0 0.0
2016-Jun-23 13:33N 32°23' W 090°53'0 0.1
2016-Jun-23 12:33N 32°23' W 090°53'3 1.7
2016-Jun-23 10:34N 32°20' W 090°54'3 3.3
2016-Jun-23 09:34N 32°23' W 090°53'0 0.0
2016-Jun-23 08:34N 32°23' W 090°53'0 0.0
2016-Jun-23 07:34N 32°23' W 090°53'0 0.0
2016-Jun-23 05:34N 32°23' W 090°53'0 0.0
2016-Jun-23 04:34N 32°23' W 090°53'0 0.0
2016-Jun-23 03:33N 32°23' W 090°53'2 1.6
2016-Jun-23 02:34N 32°22' W 090°53'2 1.5
2016-Jun-23 01:33N 32°23' W 090°53'1 0.8
2016-Jun-23 00:33N 32°23' W 090°52'2 2.0
2016-Jun-22 23:33N 32°21' W 090°53'1 0.0
2016-Jun-22 11:33N 32°20' W 090°54'2 2.2
2016-Jun-22 10:33N 32°22' W 090°53'1 0.8
2016-Jun-22 09:33N 32°23' W 090°53'0 0.0
2016-Jun-22 08:34N 32°23' W 090°53'0 0.0
2016-Jun-22 07:34N 32°23' W 090°53'0 0.0
2016-Jun-22 06:34N 32°23' W 090°53'0 0.0
2016-Jun-22 05:33N 32°23' W 090°53'1 0.6
2016-Jun-22 04:34N 32°23' W 090°54'0 0.0
2016-Jun-22 03:33N 32°23' W 090°54'1 0.8
2016-Jun-22 02:34N 32°23' W 090°53'0 0.0
2016-Jun-22 01:34N 32°23' W 090°53'2 1.6
2016-Jun-22 00:34N 32°24' W 090°55'3 3.2
2016-Jun-21 23:34N 32°21' W 090°53'1 0.7
2016-Jun-21 22:09N 32°20' W 090°54'3 5.7
2016-Jun-21 21:34N 32°23' W 090°53'0 0.2
2016-Jun-21 20:34N 32°23' W 090°53'1 0.6
2016-Jun-21 19:33N 32°23' W 090°54'0 0.0
2016-Jun-21 18:33N 32°23' W 090°54'0 0.0
2016-Jun-21 17:34N 32°23' W 090°54'0 0.0
2016-Jun-21 16:34N 32°23' W 090°54'0 0.0
2016-Jun-21 15:34N 32°23' W 090°54'0 0.0
2016-Jun-21 14:33N 32°23' W 090°54'0 0.0
2016-Jun-21 13:34N 32°23' W 090°54'0 0.5
2016-Jun-21 12:33N 32°23' W 090°53'2 1.0
2016-Jun-21 10:33N 32°21' W 090°53'2 2.1
2016-Jun-21 09:33N 32°23' W 090°53'0 0.0
2016-Jun-21 08:33N 32°23' W 090°53'0 0.0
2016-Jun-21 07:33N 32°23' W 090°53'2 1.2
2016-Jun-21 05:33N 32°21' W 090°53'3 3.1
2016-Jun-21 04:33N 32°24' W 090°55'2 2.0
2016-Jun-21 03:33N 32°22' W 090°53'4 3.6
2016-Jun-21 02:33N 32°21' W 090°57'1 1.4
2016-Jun-21 01:33N 32°21' W 090°55'2 1.6
2016-Jun-21 00:33N 32°20' W 090°54'1 0.8
2016-Jun-20 23:33N 32°21' W 090°53'1 1.0
2016-Jun-20 22:33N 32°20' W 090°54'2 2.4
2016-Jun-20 21:33N 32°22' W 090°53'0 0.4
2016-Jun-20 20:33N 32°22' W 090°53'2 1.7
2016-Jun-20 19:33N 32°20' W 090°54'2 2.2
2016-Jun-20 18:33N 32°21' W 090°56'0 0.1
2016-Jun-20 17:33N 32°21' W 090°56'2 2.4
2016-Jun-20 16:33N 32°20' W 090°54'1 0.8
2016-Jun-20 15:33N 32°21' W 090°53'3 2.5
2016-Jun-20 14:34N 32°23' W 090°53'0 0.1
2016-Jun-20 13:33N 32°23' W 090°53'1 0.8
2016-Jun-20 12:33N 32°22' W 090°53'3 2.9
2016-Jun-20 11:33N 32°20' W 090°54'0 0.0
2016-Jun-20 10:34N 32°20' W 090°54'0 0.0
2016-Jun-20 09:34N 32°20' W 090°54'3 2.5
2016-Jun-20 08:33N 32°21' W 090°56'0 0.1
2016-Jun-20 07:34N 32°21' W 090°56'2 2.4
2016-Jun-20 06:33N 32°21' W 090°53'0 0.0
2016-Jun-20 05:33N 32°21' W 090°53'0 0.0
2016-Jun-20 04:33N 32°21' W 090°53'0 0.0
2016-Jun-20 03:34N 32°21' W 090°53'0 0.2
2016-Jun-20 02:34N 32°21' W 090°54'3 2.6
2016-Jun-20 01:33N 32°23' W 090°53'1 0.9
2016-Jun-20 00:34N 32°23' W 090°54'2 1.8
2016-Jun-19 23:34N 32°22' W 090°53'2 1.5
2016-Jun-19 22:08N 32°20' W 090°54'3 4.8
2016-Jun-19 21:33N 32°22' W 090°53'1 1.2
2016-Jun-19 20:33N 32°23' W 090°53'0 0.0
2016-Jun-19 19:33N 32°23' W 090°53'0 0.0
2016-Jun-19 18:33N 32°23' W 090°53'0 0.0
2016-Jun-19 17:33N 32°23' W 090°53'0 0.0
2016-Jun-19 16:34N 32°23' W 090°53'0 0.0
2016-Jun-19 15:33N 32°23' W 090°53'0 0.0
2016-Jun-19 14:34N 32°23' W 090°53'0 0.0
2016-Jun-19 13:33N 32°23' W 090°53'4 1.2
2016-Jun-19 10:26N 32°20' W 090°54'4 4.2
2016-Jun-19 09:33N 32°23' W 090°53'0 0.0
2016-Jun-19 08:33N 32°23' W 090°53'0 0.0
2016-Jun-19 07:33N 32°23' W 090°53'0 0.0
2016-Jun-19 06:33N 32°23' W 090°53'0 0.0
2016-Jun-19 05:33N 32°23' W 090°53'0 0.0
2016-Jun-19 04:33N 32°23' W 090°53'0 0.0
2016-Jun-19 03:33N 32°23' W 090°53'0 0.0
2016-Jun-19 02:33N 32°23' W 090°53'1 0.6
2016-Jun-19 01:34N 32°23' W 090°53'  
Track history (hours):
 
Tides and Currents Weather Stations Pressure Air Temp Water Temp Dewpoint Dewpoint Depression Visibility Wind Speed Wind Dir Waves Ship Positions

M/V Gs980

Owner: ERGON MARINE AND INDUSTRIAL SUPPLY, VICKSBURG, MS. More information available from US FCC via Universal Licensing System and Coast Guard Vessel Documentation Center.

Last reported at 2016-Jun-29 01:33 UTC. Time now 2016-Jun-29 02:08 UTC.
Position N 32°22' W 090°53'.

Length 16 m.

Type: Towing. MMSI: 367099640.

Date/timePositionNaut miles runAvg speedWind from/ knotsBaromVisibWave heightAir tempDewpointWater temp
2016-Jun-29 01:33N 32°22' W 090°53'2 2.0
2016-Jun-29 00:33N 32°20' W 090°54'0 0.0
2016-Jun-28 23:34N 32°20' W 090°54'0 0.1
2016-Jun-28 22:33N 32°20' W 090°54'0 0.0
2016-Jun-28 21:33N 32°20' W 090°54'3 0.3
2016-Jun-28 12:34N 32°23' W 090°53'4 1.8
2016-Jun-28 10:29N 32°20' W 090°54'4 3.9
2016-Jun-28 09:34N 32°23' W 090°53'0 0.0
2016-Jun-28 08:33N 32°23' W 090°53'0 0.0
2016-Jun-28 07:33N 32°23' W 090°53'0 0.0
2016-Jun-28 06:34N 32°23' W 090°53'0 0.0
2016-Jun-28 04:33N 32°23' W 090°53'0 0.0
2016-Jun-28 03:34N 32°23' W 090°53'0 0.0
2016-Jun-28 02:33N 32°23' W 090°53'1 0.5
2016-Jun-28 01:34N 32°23' W 090°54'1 0.7
2016-Jun-28 00:34N 32°23' W 090°53'2 2.1
2016-Jun-27 23:34N 32°21' W 090°53'2 1.8
2016-Jun-27 22:33N 32°19' W 090°54'2 1.7
2016-Jun-27 21:33N 32°18' W 090°55'3 3.1
2016-Jun-27 20:33N 32°21' W 090°53'1 0.9
2016-Jun-27 19:33N 32°22' W 090°53'0 0.1
2016-Jun-27 18:33N 32°22' W 090°53'1 1.2
2016-Jun-27 17:33N 32°23' W 090°53'0 0.0
2016-Jun-27 16:33N 32°23' W 090°53'3 3.4
2016-Jun-27 15:33N 32°20' W 090°54'2 2.3
2016-Jun-27 14:33N 32°18' W 090°56'0 0.0
2016-Jun-27 13:33N 32°18' W 090°56'3 3.1
2016-Jun-27 12:33N 32°20' W 090°54'0 0.2
2016-Jun-27 11:33N 32°20' W 090°54'0 0.0
2016-Jun-27 10:34N 32°20' W 090°54'0 0.3
2016-Jun-27 09:33N 32°20' W 090°54'0 0.0
2016-Jun-27 08:34N 32°20' W 090°54'0 0.0
2016-Jun-27 07:33N 32°20' W 090°54'1 0.9
2016-Jun-27 06:33N 32°21' W 090°53'1 1.1
2016-Jun-27 05:33N 32°20' W 090°54'0 0.2
2016-Jun-27 04:34N 32°21' W 090°54'3 2.7
2016-Jun-27 03:33N 32°23' W 090°53'0 0.0
2016-Jun-27 02:33N 32°23' W 090°53'0 0.0
2016-Jun-27 01:33N 32°23' W 090°53'0 0.0
2016-Jun-27 00:33N 32°23' W 090°53'3 3.1
2016-Jun-26 23:34N 32°20' W 090°54'0 0.2
2016-Jun-26 22:33N 32°20' W 090°54'2 2.5
2016-Jun-26 21:33N 32°22' W 090°53'1 1.0
2016-Jun-26 20:33N 32°23' W 090°53'0 0.0
2016-Jun-26 19:33N 32°23' W 090°53'0 0.0
2016-Jun-26 18:33N 32°23' W 090°53'0 0.0
2016-Jun-26 17:33N 32°23' W 090°53'0 0.0
2016-Jun-26 16:33N 32°23' W 090°53'0 0.0
2016-Jun-26 15:33N 32°23' W 090°53'3 3.2
2016-Jun-26 14:33N 32°20' W 090°54'2 2.3
2016-Jun-26 13:33N 32°18' W 090°55'0 0.0
2016-Jun-26 12:33N 32°18' W 090°55'2 1.0
2016-Jun-26 10:34N 32°20' W 090°54'0 0.0
2016-Jun-26 09:34N 32°20' W 090°54'0 0.0
2016-Jun-26 08:34N 32°20' W 090°54'0 0.0
2016-Jun-26 07:34N 32°20' W 090°54'0 0.0
2016-Jun-26 06:34N 32°20' W 090°54'2 1.7
2016-Jun-26 05:34N 32°18' W 090°55'0 0.3
2016-Jun-26 04:34N 32°18' W 090°55'1 0.6
2016-Jun-26 03:34N 32°18' W 090°55'3 2.6
2016-Jun-26 02:34N 32°21' W 090°53'2 2.5
2016-Jun-26 01:34N 32°23' W 090°53'1 0.8
2016-Jun-26 00:34N 32°22' W 090°53'2 1.9
2016-Jun-25 23:34N 32°21' W 090°54'0 0.2
2016-Jun-25 21:33N 32°21' W 090°53'1 0.6
2016-Jun-25 20:33N 32°20' W 090°54'0 0.0
2016-Jun-25 19:33N 32°20' W 090°54'0 0.0
2016-Jun-25 18:33N 32°20' W 090°54'3 2.9
2016-Jun-25 17:33N 32°23' W 090°53'0 0.0
2016-Jun-25 16:33N 32°23' W 090°53'0 0.0
2016-Jun-25 15:33N 32°23' W 090°53'0 0.0
2016-Jun-25 14:33N 32°23' W 090°53'0 0.0
2016-Jun-25 13:33N 32°23' W 090°53'2 1.8
2016-Jun-25 12:33N 32°21' W 090°53'2 0.6
2016-Jun-25 09:10N 32°20' W 090°54'4 5.9
2016-Jun-25 08:33N 32°23' W 090°53'0 0.3
2016-Jun-25 07:33N 32°23' W 090°53'0 0.0
2016-Jun-25 06:33N 32°23' W 090°53'0 0.0
2016-Jun-25 05:33N 32°23' W 090°53'0 0.0
2016-Jun-25 04:33N 32°23' W 090°53'0 0.0
2016-Jun-25 03:33N 32°23' W 090°53'0 0.0
2016-Jun-25 02:33N 32°23' W 090°53'0 0.0
2016-Jun-25 01:33N 32°23' W 090°53'0 0.0
2016-Jun-25 00:33N 32°23' W 090°53'2 2.4
2016-Jun-24 23:33N 32°21' W 090°53'1 1.3
2016-Jun-24 22:33N 32°22' W 090°53'1 0.7
2016-Jun-24 21:33N 32°23' W 090°52'2 2.3
2016-Jun-24 20:33N 32°20' W 090°54'3 2.7
2016-Jun-24 19:33N 32°23' W 090°53'0 0.0
2016-Jun-24 18:33N 32°23' W 090°53'0 0.0
2016-Jun-24 17:33N 32°23' W 090°53'0 0.0
2016-Jun-24 16:33N 32°23' W 090°53'0 0.0
2016-Jun-24 15:33N 32°23' W 090°53'0 0.0
2016-Jun-24 14:33N 32°23' W 090°53'0 0.0
2016-Jun-24 13:33N 32°23' W 090°53'0 0.0
2016-Jun-24 12:33N 32°23' W 090°53'3 2.6
2016-Jun-24 11:33N 32°21' W 090°54'1 0.6
2016-Jun-24 10:18N 32°20' W 090°54'3 4.6
2016-Jun-24 09:33N 32°23' W 090°53'0 0.0
2016-Jun-24 08:33N 32°23' W 090°53'0 0.0
2016-Jun-24 07:33N 32°23' W 090°53'0 0.0
2016-Jun-24 04:33N 32°23' W 090°53'0 0.0
2016-Jun-24 03:33N 32°23' W 090°53'0 0.3
2016-Jun-24 02:33N 32°23' W 090°53'0 0.2
2016-Jun-24 01:33N 32°23' W 090°53'1 0.7
2016-Jun-24 00:33N 32°22' W 090°53'2 2.2
2016-Jun-23 23:33N 32°20' W 090°54'3 2.9
2016-Jun-23 22:33N 32°23' W 090°53'0 0.2
2016-Jun-23 21:34N 32°23' W 090°53'0 0.0
2016-Jun-23 20:33N 32°23' W 090°53'0 0.0
2016-Jun-23 19:33N 32°23' W 090°53'0 0.0
2016-Jun-23 18:34N 32°23' W 090°53'0 0.0
2016-Jun-23 17:33N 32°23' W 090°53'0 0.0
2016-Jun-23 16:34N 32°23' W 090°53'0 0.0
2016-Jun-23 15:33N 32°23' W 090°53'0 0.0
2016-Jun-23 14:33N 32°23' W 090°53'0 0.0
2016-Jun-23 13:33N 32°23' W 090°53'0 0.1
2016-Jun-23 12:33N 32°23' W 090°53'3 1.7
2016-Jun-23 10:34N 32°20' W 090°54'3 3.3
2016-Jun-23 09:34N 32°23' W 090°53'0 0.0
2016-Jun-23 08:34N 32°23' W 090°53'0 0.0
2016-Jun-23 07:34N 32°23' W 090°53'0 0.0
2016-Jun-23 05:34N 32°23' W 090°53'0 0.0
2016-Jun-23 04:34N 32°23' W 090°53'0 0.0
2016-Jun-23 03:33N 32°23' W 090°53'2 1.6
2016-Jun-23 02:34N 32°22' W 090°53'2 1.5
2016-Jun-23 01:33N 32°23' W 090°53'1 0.8
2016-Jun-23 00:33N 32°23' W 090°52'2 2.0
2016-Jun-22 23:33N 32°21' W 090°53'1 0.0
2016-Jun-22 11:33N 32°20' W 090°54'2 2.2
2016-Jun-22 10:33N 32°22' W 090°53'1 0.8
2016-Jun-22 09:33N 32°23' W 090°53'0 0.0
2016-Jun-22 08:34N 32°23' W 090°53'0 0.0
2016-Jun-22 07:34N 32°23' W 090°53'0 0.0
2016-Jun-22 06:34N 32°23' W 090°53'0 0.0
2016-Jun-22 05:33N 32°23' W 090°53'1 0.6
2016-Jun-22 04:34N 32°23' W 090°54'0 0.0
2016-Jun-22 03:33N 32°23' W 090°54'1 0.8
2016-Jun-22 02:34N 32°23' W 090°53'0 0.0
2016-Jun-22 01:34N 32°23' W 090°53'2 1.6
2016-Jun-22 00:34N 32°24' W 090°55'3 3.2
2016-Jun-21 23:34N 32°21' W 090°53'1 0.7
2016-Jun-21 22:09N 32°20' W 090°54'3 5.7
2016-Jun-21 21:34N 32°23' W 090°53'0 0.2
2016-Jun-21 20:34N 32°23' W 090°53'1 0.6
2016-Jun-21 19:33N 32°23' W 090°54'0 0.0
2016-Jun-21 18:33N 32°23' W 090°54'0 0.0
2016-Jun-21 17:34N 32°23' W 090°54'0 0.0
2016-Jun-21 16:34N 32°23' W 090°54'0 0.0
2016-Jun-21 15:34N 32°23' W 090°54'0 0.0
2016-Jun-21 14:33N 32°23' W 090°54'0 0.0
2016-Jun-21 13:34N 32°23' W 090°54'0 0.5
2016-Jun-21 12:33N 32°23' W 090°53'2 1.0
2016-Jun-21 10:33N 32°21' W 090°53'2 2.1
2016-Jun-21 09:33N 32°23' W 090°53'0 0.0
2016-Jun-21 08:33N 32°23' W 090°53'0 0.0
2016-Jun-21 07:33N 32°23' W 090°53'2 1.2
2016-Jun-21 05:33N 32°21' W 090°53'3 3.1
2016-Jun-21 04:33N 32°24' W 090°55'2 2.0
2016-Jun-21 03:33N 32°22' W 090°53'4 3.6
2016-Jun-21 02:33N 32°21' W 090°57'1 1.4
2016-Jun-21 01:33N 32°21' W 090°55'2 1.6
2016-Jun-21 00:33N 32°20' W 090°54'1 0.8
2016-Jun-20 23:33N 32°21' W 090°53'1 1.0
2016-Jun-20 22:33N 32°20' W 090°54'2 2.4
2016-Jun-20 21:33N 32°22' W 090°53'0 0.4
2016-Jun-20 20:33N 32°22' W 090°53'2 1.7
2016-Jun-20 19:33N 32°20' W 090°54'2 2.2
2016-Jun-20 18:33N 32°21' W 090°56'0 0.1
2016-Jun-20 17:33N 32°21' W 090°56'2 2.4
2016-Jun-20 16:33N 32°20' W 090°54'1 0.8
2016-Jun-20 15:33N 32°21' W 090°53'3 2.5
2016-Jun-20 14:34N 32°23' W 090°53'0 0.1
2016-Jun-20 13:33N 32°23' W 090°53'1 0.8
2016-Jun-20 12:33N 32°22' W 090°53'3 2.9
2016-Jun-20 11:33N 32°20' W 090°54'0 0.0
2016-Jun-20 10:34N 32°20' W 090°54'0 0.0
2016-Jun-20 09:34N 32°20' W 090°54'3 2.5
2016-Jun-20 08:33N 32°21' W 090°56'0 0.1
2016-Jun-20 07:34N 32°21' W 090°56'2 2.4
2016-Jun-20 06:33N 32°21' W 090°53'0 0.0
2016-Jun-20 05:33N 32°21' W 090°53'0 0.0
2016-Jun-20 04:33N 32°21' W 090°53'0 0.0
2016-Jun-20 03:34N 32°21' W 090°53'0 0.2
2016-Jun-20 02:34N 32°21' W 090°54'3 2.6
2016-Jun-20 01:33N 32°23' W 090°53'1 0.9
2016-Jun-20 00:34N 32°23' W 090°54'2 1.8
2016-Jun-19 23:34N 32°22' W 090°53'2 1.5
2016-Jun-19 22:08N 32°20' W 090°54'3 4.8
2016-Jun-19 21:33N 32°22' W 090°53'1 1.2
2016-Jun-19 20:33N 32°23' W 090°53'0 0.0
2016-Jun-19 19:33N 32°23' W 090°53'0 0.0
2016-Jun-19 18:33N 32°23' W 090°53'0 0.0
2016-Jun-19 17:33N 32°23' W 090°53'0 0.0
2016-Jun-19 16:34N 32°23' W 090°53'0 0.0
2016-Jun-19 15:33N 32°23' W 090°53'0 0.0
2016-Jun-19 14:34N 32°23' W 090°53'0 0.0
2016-Jun-19 13:33N 32°23' W 090°53'4 1.2
2016-Jun-19 10:26N 32°20' W 090°54'4 4.2
2016-Jun-19 09:33N 32°23' W 090°53'0 0.0
2016-Jun-19 08:33N 32°23' W 090°53'0 0.0
2016-Jun-19 07:33N 32°23' W 090°53'0 0.0
2016-Jun-19 06:33N 32°23' W 090°53'0 0.0
2016-Jun-19 05:33N 32°23' W 090°53'0 0.0
2016-Jun-19 04:33N 32°23' W 090°53'0 0.0
2016-Jun-19 03:33N 32°23' W 090°53'0 0.0
2016-Jun-19 02:33N 32°23' W 090°53'1 0.6
2016-Jun-19 01:34N 32°23' W 090°53'  

Dump ship's entire track history